Time;durP1;ratioP1;P1;durP2;ratioP2;P2;SDS_P1;SDS_P2;PMS_P1;PMS_P2;Temp;Humidity;BMP_temperature;BMP_pressure;BME280_temperature;BME280_humidity;BME280_pressure;Samples;Min_cycle;Max_cycle;Signal;HPM_P1;HPM_P2
2021/07/08 00:03:48;;;;;;;8.60;3.30;;;;;;;21.14;73.17;99397.53;4258824;82;21065;-81
2021/07/08 00:09:50;;;;;;;5.65;3.75;;;;;;;20.99;73.09;99410.24;4257986;82;21097;-80
2021/07/08 00:15:53;;;;;;;9.23;3.72;;;;;;;20.92;73.50;99413.78;4259707;82;21033;-81
2021/07/08 00:21:54;;;;;;;7.30;3.65;;;;;;;20.94;73.71;99412.12;4263290;82;21933;-81
2021/07/08 00:27:57;;;;;;;8.10;4.03;;;;;;;20.74;73.74;99412.01;4258283;82;21579;-81
2021/07/08 00:34:01;;;;;;;5.78;3.47;;;;;;;20.68;73.68;99413.74;4261336;82;21047;-83
2021/07/08 00:40:04;;;;;;;6.60;3.10;;;;;;;20.60;74.29;99420.08;4258840;82;21090;-81
2021/07/08 00:46:06;;;;;;;5.62;3.10;;;;;;;20.64;74.37;99426.33;4258219;82;21027;-80
2021/07/08 00:52:07;;;;;;;7.95;4.05;;;;;;;20.57;74.43;99430.68;4250516;82;21184;-80
2021/07/08 00:58:10;;;;;;;4.75;2.83;;;;;;;20.43;74.57;99436.55;4238247;82;21127;-81
2021/07/08 01:04:12;;;;;;;9.33;3.87;;;;;;;20.45;75.02;99426.39;4236400;82;21032;-81
2021/07/08 01:10:14;;;;;;;7.67;3.20;;;;;;;20.48;74.97;99435.26;4130225;84;21054;-82
2021/07/08 01:16:16;;;;;;;5.90;2.98;;;;;;;20.46;75.16;99438.47;4235331;82;21154;-80
2021/07/08 01:22:17;;;;;;;6.33;3.40;;;;;;;20.47;75.03;99439.27;4239524;82;21032;-82
2021/07/08 01:28:18;;;;;;;5.45;3.60;;;;;;;20.33;75.04;99445.89;4148633;83;21114;-80
2021/07/08 01:34:19;;;;;;;10.45;3.30;;;;;;;20.19;75.26;99444.20;4237839;82;21046;-81
2021/07/08 01:40:21;;;;;;;10.08;3.35;;;;;;;20.08;75.42;99453.92;4137830;84;21004;-81
2021/07/08 01:46:23;;;;;;;5.08;3.58;;;;;;;20.11;75.67;99453.06;4234143;82;21102;-81
2021/07/08 01:52:26;;;;;;;8.48;3.47;;;;;;;20.10;75.67;99448.13;4241978;82;21059;-81
2021/07/08 01:58:27;;;;;;;6.78;3.55;;;;;;;20.02;75.58;99438.97;4262428;82;21694;-81
2021/07/08 02:04:29;;;;;;;7.40;3.27;;;;;;;19.83;75.91;99453.62;4258756;82;21046;-81
2021/07/08 02:10:30;;;;;;;6.97;3.40;;;;;;;19.84;76.20;99456.59;4258670;82;21069;-82
2021/07/08 02:16:31;;;;;;;6.72;3.58;;;;;;;19.71;76.20;99466.75;4264554;82;21055;-81
2021/07/08 02:22:33;;;;;;;6.17;3.95;;;;;;;19.60;76.35;99476.67;4261281;82;21006;-82
2021/07/08 02:28:35;;;;;;;6.95;3.85;;;;;;;19.50;76.61;99476.83;4260513;82;21091;-80
2021/07/08 02:34:38;;;;;;;8.03;4.47;;;;;;;19.43;77.00;99479.15;4260175;82;21046;-82
2021/07/08 02:40:39;;;;;;;9.45;4.90;;;;;;;19.34;77.05;99476.73;4259664;82;21018;-81
2021/07/08 02:46:40;;;;;;;7.67;5.70;;;;;;;19.27;77.23;99475.41;4258377;82;21114;-82
2021/07/08 02:52:45;;;;;;;12.35;4.37;;;;;;;19.10;77.40;99480.64;4255807;82;21003;-81
2021/07/08 02:58:46;;;;;;;10.35;4.20;;;;;;;19.10;77.61;99489.77;4233154;82;21064;-82
2021/07/08 03:04:48;;;;;;;9.20;5.42;;;;;;;19.11;78.08;99497.47;4235751;82;21717;-81
2021/07/08 03:10:49;;;;;;;9.05;4.37;;;;;;;19.15;78.01;99501.78;4236456;82;21104;-81
2021/07/08 03:16:50;;;;;;;9.63;4.50;;;;;;;19.22;78.02;99507.21;4249483;81;41266;-82
2021/07/08 03:22:52;;;;;;;6.80;3.87;;;;;;;19.04;78.00;99505.91;4250267;82;21070;-81
2021/07/08 03:28:54;;;;;;;8.53;5.65;;;;;;;19.04;78.25;99505.91;4248497;82;22342;-81
2021/07/08 03:34:55;;;;;;;9.00;5.28;;;;;;;19.10;78.33;99513.94;4250299;82;21534;-81
2021/07/08 03:40:56;;;;;;;10.28;4.78;;;;;;;19.13;78.51;99515.88;4253557;82;21038;-81
2021/07/08 03:46:58;;;;;;;8.93;3.80;;;;;;;19.14;78.41;99516.08;4251509;82;21072;-81
2021/07/08 03:52:59;;;;;;;8.10;3.87;;;;;;;19.17;78.64;99521.55;4271078;81;21107;-81
2021/07/08 03:59:00;;;;;;;9.13;3.75;;;;;;;19.15;78.82;99522.59;4322711;81;21521;-79
2021/07/08 04:05:01;;;;;;;6.72;3.45;;;;;;;19.27;78.81;99533.11;4275955;82;21036;-80
2021/07/08 04:11:03;;;;;;;7.80;3.50;;;;;;;19.31;78.82;99542.81;4275231;82;21116;-81
2021/07/08 04:17:05;;;;;;;10.72;4.15;;;;;;;19.28;78.75;99552.73;4276316;82;21005;-81
2021/07/08 04:23:09;;;;;;;10.78;4.17;;;;;;;19.32;78.42;99552.70;4271101;82;21539;-82
2021/07/08 04:29:10;;;;;;;8.33;4.22;;;;;;;19.32;78.60;99554.08;4277230;82;21100;-81
2021/07/08 04:35:18;;;;;;;8.60;3.42;;;;;;;19.34;78.59;99553.07;4275528;82;20975;-81
2021/07/08 04:41:17;;;;;;;8.70;3.70;;;;;;;19.34;78.47;99549.67;4272865;82;21144;-81
2021/07/08 04:47:20;;;;;;;10.08;3.33;;;;;;;19.39;78.41;99547.02;4274180;82;21084;-82
2021/07/08 04:53:21;;;;;;;7.58;3.60;;;;;;;19.44;78.47;99542.38;4267090;82;21080;-81
2021/07/08 04:59:22;;;;;;;8.65;4.75;;;;;;;19.49;78.26;99544.69;4262118;82;21421;-82
2021/07/08 05:05:24;;;;;;;10.10;4.00;;;;;;;19.49;78.21;99544.69;4261980;82;21057;-81
2021/07/08 05:11:25;;;;;;;10.68;4.10;;;;;;;19.47;78.20;99548.48;4262347;82;20992;-82
2021/07/08 05:17:27;;;;;;;8.73;4.30;;;;;;;19.56;78.16;99544.59;4263321;82;21089;-81
2021/07/08 05:23:30;;;;;;;8.03;5.65;;;;;;;19.50;77.91;99542.88;4262145;82;21021;-81
2021/07/08 05:29:31;;;;;;;14.35;5.15;;;;;;;19.59;77.86;99539.58;4262161;82;21046;-82
2021/07/08 05:35:33;;;;;;;14.63;4.87;;;;;;;19.74;77.92;99554.78;4265128;82;21040;-82
2021/07/08 05:41:34;;;;;;;12.63;5.87;;;;;;;19.90;77.56;99550.74;4266840;82;22520;-81
2021/07/08 05:47:36;;;;;;;7.00;4.37;;;;;;;19.92;77.33;99551.11;4273047;82;21011;-82
2021/07/08 05:53:37;;;;;;;8.20;4.45;;;;;;;20.06;77.48;99559.19;4274893;82;21068;-81
2021/07/08 05:59:39;;;;;;;7.87;4.65;;;;;;;20.23;77.24;99554.53;4275304;81;21046;-82
2021/07/08 06:05:40;;;;;;;11.35;4.50;;;;;;;20.26;77.04;99545.34;4270420;82;21164;-82
2021/07/08 06:11:42;;;;;;;17.48;6.85;;;;;;;20.42;76.88;99546.82;4276137;82;21019;-82
2021/07/08 06:17:43;;;;;;;9.83;6.53;;;;;;;20.53;76.63;99539.81;4270623;82;21671;-81
2021/07/08 06:23:45;;;;;;;10.88;5.53;;;;;;;20.70;76.52;99533.12;4276584;82;21007;-82
2021/07/08 06:29:46;;;;;;;8.08;5.15;;;;;;;20.74;76.35;99535.21;4269775;82;21029;-81
2021/07/08 06:35:48;;;;;;;13.65;5.28;;;;;;;21.00;76.22;99538.44;4279112;82;21420;-82
2021/07/08 06:41:49;;;;;;;14.90;5.55;;;;;;;21.29;75.94;99533.80;4279872;82;21064;-82
2021/07/08 06:47:51;;;;;;;13.22;4.72;;;;;;;21.49;75.73;99525.36;4280774;82;20999;-82
2021/07/08 06:53:54;;;;;;;16.75;8.65;;;;;;;21.57;75.40;99528.14;4269730;82;21601;-81
2021/07/08 06:59:55;;;;;;;13.95;6.72;;;;;;;21.87;75.11;99512.48;4248965;82;21349;-82
2021/07/08 07:05:57;;;;;;;9.03;4.95;;;;;;;21.91;74.40;99514.55;4252124;82;21578;-82
2021/07/08 07:11:58;;;;;;;9.63;4.85;;;;;;;22.39;75.05;99508.86;4253907;82;21386;-82
2021/07/08 07:17:59;;;;;;;9.08;6.30;;;;;;;23.07;73.91;99516.80;4252735;82;21072;-82
2021/07/08 07:24:02;;;;;;;8.23;4.33;;;;;;;23.68;73.25;99518.63;4249939;82;21065;-83
2021/07/08 07:30:05;;;;;;;11.35;4.25;;;;;;;24.11;72.63;99511.77;4247084;82;21507;-83
2021/07/08 07:36:07;;;;;;;15.32;5.97;;;;;;;24.32;71.80;99507.44;4224275;82;21061;-83
2021/07/08 07:42:09;;;;;;;8.20;4.10;;;;;;;24.38;71.12;99490.98;4243734;82;21026;-83
2021/07/08 07:48:11;;;;;;;10.28;5.70;;;;;;;24.64;70.35;99482.62;4251491;82;21018;-83
2021/07/08 07:54:12;;;;;;;10.78;6.15;;;;;;;25.25;66.57;99484.63;4249739;81;21622;-81
2021/07/08 08:00:14;;;;;;;11.33;5.33;;;;;;;25.25;66.57;99484.63;4264766;81;21002;-83
2021/07/08 08:12:36;;;;;;;18.82;6.30;;;;;;;25.28;67.16;99450.69;4264378;82;21100;-83
2021/07/08 08:18:38;;;;;;;13.13;5.72;;;;;;;25.44;66.19;99446.25;4272447;82;21900;-83
2021/07/08 08:24:39;;;;;;;13.62;5.95;;;;;;;25.44;66.19;99446.25;4272083;82;21072;-83
2021/07/08 08:30:41;;;;;;;14.07;5.50;;;;;;;25.62;64.84;99457.52;4268775;82;21044;-82
2021/07/08 08:36:44;;;;;;;13.85;5.97;;;;;;;25.77;65.08;99462.05;4268985;82;21046;-83
2021/07/08 08:42:46;;;;;;;13.03;5.92;;;;;;;25.70;64.13;99453.92;4275303;81;21323;-83
2021/07/08 08:48:47;;;;;;;13.30;5.10;;;;;;;25.96;64.26;99455.20;4269651;82;21041;-83
2021/07/08 08:54:51;;;;;;;14.90;5.53;;;;;;;26.13;64.27;99450.86;4270767;81;21080;-82
2021/07/08 09:00:57;;;;;;;11.40;5.78;;;;;;;26.13;62.61;99441.66;4243721;82;21027;-82
2021/07/08 09:07:31;;;;;;;9.18;5.78;;;;;;;26.25;63.93;99442.09;4246642;82;21002;-83
2021/07/08 09:14:03;;;;;;;13.95;6.92;;;;;;;26.49;62.35;99433.79;4244856;82;21045;-80
2021/07/08 09:20:12;;;;;;;12.13;6.37;;;;;;;26.37;62.12;99425.73;4249376;82;21027;-84
2021/07/08 09:26:14;;;;;;;10.38;6.15;;;;;;;26.38;62.43;99417.45;4247071;82;21513;-82
2021/07/08 09:32:22;;;;;;;10.40;5.97;;;;;;;26.66;61.59;99411.94;4251686;82;21022;-80
2021/07/08 09:38:25;;;;;;;11.20;7.20;;;;;;;26.82;60.80;99405.95;4250649;82;21100;-82
2021/07/08 09:44:28;;;;;;;14.10;6.33;;;;;;;27.13;61.65;99399.39;4244044;82;21053;-81
2021/07/08 09:50:34;;;;;;;8.55;6.35;;;;;;;27.46;61.05;99392.34;4252006;82;21025;-80
2021/07/08 09:56:43;;;;;;;;;;;;;;;27.74;60.17;99392.27;4268293;82;21124;-82
2021/07/08 10:02:42;;;;;;;8.90;5.90;;;;;;;27.87;60.34;99389.20;4276179;81;20157;-82
2021/07/08 10:08:44;;;;;;;15.60;6.47;;;;;;;28.14;60.28;99384.76;4271853;82;21613;-82
2021/07/08 10:14:50;;;;;;;14.35;6.58;;;;;;;28.47;60.14;99378.30;4276458;82;21864;-80
2021/07/08 10:20:54;;;;;;;19.23;6.08;;;;;;;28.76;58.61;99372.65;4273634;81;21065;-80
2021/07/08 10:26:57;;;;;;;13.70;7.37;;;;;;;28.85;59.61;99371.11;4282864;82;21046;-82
2021/07/08 10:33:00;;;;;;;10.35;6.53;;;;;;;29.21;58.71;99359.36;4273407;81;21596;-81
2021/07/08 10:39:09;;;;;;;14.15;6.47;;;;;;;29.48;58.42;99347.67;4277646;82;21072;-81
2021/07/08 10:45:38;;;;;;;12.40;6.45;;;;;;;29.85;57.32;99345.81;4281262;82;21053;-81
2021/07/08 10:51:44;;;;;;;18.10;8.13;;;;;;;30.15;58.22;99341.50;4282509;81;21049;-82
2021/07/08 10:57:47;;;;;;;11.47;7.17;;;;;;;30.35;56.84;99325.91;4262453;82;21050;-82
2021/07/08 11:03:51;;;;;;;9.05;6.58;;;;;;;30.14;56.55;99320.82;4256395;82;21039;-81
2021/07/08 11:10:05;;;;;;;13.03;6.20;;;;;;;30.60;56.87;99317.26;4173998;84;21057;-81
2021/07/08 11:16:07;;;;;;;8.35;6.00;;;;;;;31.24;56.78;99320.23;4262446;82;21025;-82
2021/07/08 11:22:16;;;;;;;13.65;6.22;;;;;;;31.78;55.38;99316.69;4264154;82;21164;-82
2021/07/08 11:28:30;;;;;;;8.05;6.12;;;;;;;32.07;55.76;99309.82;4252233;82;21176;-83
2021/07/08 11:34:32;;;;;;;8.08;6.15;;;;;;;32.41;55.70;99300.06;4263885;82;21042;-82
2021/07/08 11:40:42;;;;;;;9.40;5.90;;;;;;;32.68;53.83;99292.18;4259681;82;21805;-80
2021/07/08 11:46:44;;;;;;;10.65;5.87;;;;;;;32.89;50.78;99283.55;4266216;82;21024;-82
2021/07/08 11:52:47;;;;;;;9.33;6.20;;;;;;;32.93;52.15;99271.27;4261541;82;21053;-83
2021/07/08 11:58:49;;;;;;;7.22;5.30;;;;;;;33.30;52.24;99276.66;4244392;82;21087;-82
2021/07/08 12:04:50;;;;;;;9.00;5.70;;;;;;;33.38;52.30;99266.95;4244006;82;21033;-81
2021/07/08 12:11:18;;;;;;;9.73;6.15;;;;;;;33.46;50.35;99266.55;4247348;82;21069;-82
2021/07/08 12:17:19;;;;;;;7.65;5.50;;;;;;;33.20;51.51;99260.48;4247738;82;22256;-83
2021/07/08 12:23:21;;;;;;;9.53;5.90;;;;;;;33.14;50.95;99244.88;4254118;82;21107;-82
2021/07/08 12:29:26;;;;;;;6.58;5.97;;;;;;;32.79;50.94;99244.75;4247777;82;21051;-81
2021/07/08 12:35:45;;;;;;;7.75;6.00;;;;;;;32.53;51.25;99251.37;4252992;82;21099;-81
2021/07/08 12:41:47;;;;;;;10.10;6.40;;;;;;;31.91;51.60;99238.52;4244545;82;21120;-82
2021/07/08 12:47:54;;;;;;;10.15;6.40;;;;;;;31.59;52.09;99242.03;4248914;82;21084;-81
2021/07/08 12:53:56;;;;;;;10.68;6.35;;;;;;;31.54;52.36;99230.84;4252423;82;21565;-80
2021/07/08 15:49:18;;;;;;;8.93;8.13;;;;;;;30.98;57.08;99082.77;4547120;77;22296;-81
2021/07/08 15:55:19;;;;;;;9.38;8.48;;;;;;;30.88;57.41;99078.00;4478211;78;21100;-80
2021/07/08 16:01:20;;;;;;;10.70;8.60;;;;;;;30.82;57.58;99066.55;4484852;78;21067;-81
2021/07/08 16:07:22;;;;;;;10.38;8.45;;;;;;;30.81;57.28;99057.28;4466176;78;21083;-77
2021/07/08 16:13:23;;;;;;;9.08;8.28;;;;;;;30.77;57.11;99054.58;4476426;78;21575;-80
2021/07/08 16:19:25;;;;;;;14.23;8.70;;;;;;;30.76;56.46;99051.64;4473110;78;21066;-78
2021/07/08 16:25:26;;;;;;;9.83;8.83;;;;;;;30.73;56.46;99061.11;4471581;78;21102;-79
2021/07/08 16:31:27;;;;;;;9.60;8.08;;;;;;;30.77;55.78;99066.67;4472608;78;21069;-81
2021/07/08 16:37:28;;;;;;;9.85;8.40;;;;;;;30.74;55.79;99057.77;4472953;78;21071;-80
2021/07/08 16:43:32;;;;;;;8.65;7.72;;;;;;;30.71;55.77;99058.01;4464278;78;21460;-81
2021/07/08 16:49:33;;;;;;;9.30;8.40;;;;;;;30.62;55.90;99059.66;4440231;78;21066;-81
2021/07/08 16:55:34;;;;;;;9.08;8.28;;;;;;;30.53;55.97;99057.19;4427470;79;20998;-81
2021/07/08 17:01:37;;;;;;;9.83;8.93;;;;;;;30.37;56.14;99052.25;4324159;80;21406;-83
2021/07/08 17:07:41;;;;;;;9.17;8.27;;;;;;;30.19;56.42;99049.84;4279695;82;21622;-82
2021/07/08 17:13:42;;;;;;;9.83;8.83;;;;;;;30.01;56.67;99055.90;4276066;82;21118;-81
2021/07/08 17:19:43;;;;;;;9.95;8.78;;;;;;;29.83;56.99;99056.95;4341649;80;22331;-81
2021/07/08 17:25:45;;;;;;;12.98;8.83;;;;;;;29.67;57.32;99061.20;4341098;80;21702;-81
2021/07/08 17:31:46;;;;;;;10.80;9.48;;;;;;;29.54;57.72;99053.77;4324243;81;21085;-80
2021/07/08 17:37:48;;;;;;;10.53;9.53;;;;;;;29.41;57.97;99045.60;4282429;81;21074;-82
2021/07/08 17:43:49;;;;;;;10.93;9.93;;;;;;;29.29;58.29;99034.86;4343692;80;21030;-80
2021/07/08 17:49:51;;;;;;;11.50;10.32;;;;;;;29.18;58.73;99031.95;4390078;80;21720;-81
2021/07/08 17:55:52;;;;;;;10.30;9.23;;;;;;;29.06;59.13;99033.14;4356170;80;21038;-80
2021/07/08 18:01:53;;;;;;;13.03;9.43;;;;;;;28.95;59.49;99021.73;4342794;80;21812;-81
2021/07/08 18:07:55;;;;;;;15.60;11.78;;;;;;;28.83;59.84;99018.68;4338898;81;21075;-81
2021/07/08 18:13:56;;;;;;;11.80;10.60;;;;;;;28.71;60.21;99016.38;4332398;81;21002;-80
2021/07/08 18:19:58;;;;;;;13.85;10.70;;;;;;;28.58;60.50;99027.24;4331559;81;21070;-80
2021/07/08 18:25:59;;;;;;;13.22;11.43;;;;;;;28.43;60.87;99024.35;4362002;80;21028;-80
2021/07/08 18:32:01;;;;;;;13.43;12.05;;;;;;;28.27;61.28;99029.92;4338710;81;21602;-80
2021/07/08 18:38:03;;;;;;;12.98;11.70;;;;;;;28.09;61.69;99035.07;4330936;80;20983;-80
2021/07/08 18:44:05;;;;;;;14.73;11.60;;;;;;;27.98;62.20;99046.18;4326126;81;21017;-80
2021/07/08 18:50:11;;;;;;;14.80;11.70;;;;;;;27.84;62.62;99049.79;4182134;82;9999995;-81
2021/07/08 18:56:13;;;;;;;15.00;12.37;;;;;;;27.63;63.14;99063.69;4324015;81;21512;-81
2021/07/08 19:02:14;;;;;;;14.73;12.10;;;;;;;27.48;63.91;99075.73;4324781;81;21055;-80
2021/07/08 19:08:15;;;;;;;13.25;11.85;;;;;;;27.21;64.22;99070.39;4338498;81;21016;-81
2021/07/08 19:14:17;;;;;;;14.23;12.70;;;;;;;26.96;64.96;99066.75;4331811;81;21986;-81
2021/07/08 19:20:18;;;;;;;14.83;13.35;;;;;;;26.74;65.59;99074.77;4328213;81;21932;-80
2021/07/08 19:26:22;;;;;;;18.37;13.80;;;;;;;26.58;66.07;99072.38;4327502;81;21030;-81
2021/07/08 19:32:23;;;;;;;15.38;13.55;;;;;;;26.31;67.21;99081.66;4317747;81;21189;-80
2021/07/08 19:38:25;;;;;;;18.10;14.28;;;;;;;26.31;67.21;99081.66;4349600;81;21527;-81
2021/07/08 19:44:29;;;;;;;17.34;12.74;;;;;;;26.19;67.59;99084.84;4223204;81;9999672;-80
2021/07/08 19:50:38;;;;;;;15.72;13.43;;;;;;;26.11;68.02;99094.86;4324595;81;21064;-80
2021/07/08 19:56:34;;;;;;;15.90;14.30;;;;;;;26.02;68.33;99090.72;4346100;81;21667;-80
2021/07/08 20:02:35;;;;;;;20.43;14.68;;;;;;;25.91;68.72;99097.45;4339182;81;21067;-80
2021/07/08 20:08:37;;;;;;;21.87;15.70;;;;;;;25.84;69.21;99101.37;4327410;81;21923;-81
2021/07/08 20:14:38;;;;;;;18.70;16.20;;;;;;;25.75;69.81;99092.23;4340544;81;21038;-80
2021/07/08 20:20:40;;;;;;;17.62;15.30;;;;;;;25.75;69.81;99092.23;4312033;81;21051;-80
2021/07/08 20:26:41;;;;;;;17.17;15.23;;;;;;;25.66;69.92;99091.66;4324912;81;21051;-81
2021/07/08 20:32:42;;;;;;;18.95;15.68;;;;;;;25.57;70.23;99090.30;4319816;81;21032;-80
2021/07/08 20:38:44;;;;;;;17.00;15.20;;;;;;;25.55;70.57;99101.81;4342965;81;21055;-80
2021/07/08 20:44:45;;;;;;;21.52;17.02;;;;;;;25.59;70.97;99098.23;4212445;81;10000285;-80
2021/07/08 20:50:47;;;;;;;18.40;15.05;;;;;;;25.51;71.07;99094.97;4323111;81;21066;-80
2021/07/08 20:56:49;;;;;;;18.07;15.70;;;;;;;25.46;71.64;99101.24;4315369;81;21090;-80
2021/07/08 21:02:50;;;;;;;18.40;16.40;;;;;;;25.39;72.00;99095.96;4336602;81;21830;-80
2021/07/08 21:08:52;;;;;;;20.17;15.90;;;;;;;25.24;72.17;99102.67;4322146;81;21119;-81
2021/07/08 21:14:53;;;;;;;29.18;20.23;;;;;;;25.17;72.41;99096.77;4323190;81;21039;-80
2021/07/08 21:20:54;;;;;;;61.08;36.03;;;;;;;24.97;72.77;99085.91;4220993;84;21093;-80
2021/07/08 21:26:56;;;;;;;61.75;33.10;;;;;;;24.79;73.11;99067.14;4327429;81;21028;-81
2021/07/08 21:32:59;;;;;;;36.65;25.12;;;;;;;24.63;73.51;99061.19;4324370;81;21673;-81
2021/07/08 21:39:01;;;;;;;31.12;25.25;;;;;;;24.47;73.90;99048.16;4262224;82;21070;-81
2021/07/08 21:45:03;;;;;;;22.70;19.25;;;;;;;24.38;74.19;99040.52;4326484;81;21035;-80
2021/07/08 21:51:04;;;;;;;19.75;17.48;;;;;;;24.33;74.44;99043.18;4318936;80;21083;-81
2021/07/08 21:57:07;;;;;;;26.80;19.60;;;;;;;24.32;74.82;99055.63;4382755;80;21020;-82
2021/07/08 22:03:08;;;;;;;21.37;17.67;;;;;;;24.25;74.91;99047.52;4302849;81;21090;-82
2021/07/08 22:09:10;;;;;;;19.55;17.55;;;;;;;24.03;75.17;99044.08;4388338;80;21037;-80
2021/07/08 22:15:12;;;;;;;19.95;17.80;;;;;;;23.90;75.60;99046.22;4304404;81;21079;-80
2021/07/08 22:21:13;;;;;;;20.05;17.60;;;;;;;23.81;76.22;99051.77;4343858;81;21113;-80
2021/07/08 22:27:14;;;;;;;19.57;17.42;;;;;;;23.88;76.15;99048.05;4334246;81;21093;-80
2021/07/08 22:33:17;;;;;;;22.30;18.15;;;;;;;23.73;76.49;99047.09;4340510;81;21791;-80
2021/07/08 22:39:20;;;;;;;33.25;25.43;;;;;;;23.57;76.84;99057.13;4347312;81;21575;-80
2021/07/08 22:45:21;;;;;;;41.37;30.60;;;;;;;23.50;77.01;99059.44;4303413;82;21153;-80
2021/07/08 22:51:22;;;;;;;30.48;22.87;;;;;;;23.38;77.21;99067.31;4327699;80;21528;-80
2021/07/08 22:57:24;;;;;;;21.25;19.15;;;;;;;23.26;77.57;99070.34;4322397;81;21030;-80
2021/07/08 23:03:25;;;;;;;23.12;18.23;;;;;;;23.17;77.76;99064.09;4363369;80;21012;-81
2021/07/08 23:09:26;;;;;;;21.00;18.80;;;;;;;23.07;78.12;99072.23;4330328;81;21068;-80
2021/07/08 23:15:28;;;;;;;20.95;17.45;;;;;;;23.00;78.33;99054.98;4324381;81;21051;-80
2021/07/08 23:21:30;;;;;;;23.35;18.25;;;;;;;22.94;80.61;99053.39;4365247;80;21597;-78
2021/07/08 23:27:32;;;;;;;18.50;16.67;;;;;;;22.94;79.75;99048.44;4325782;81;21037;-79
2021/07/08 23:33:33;;;;;;;18.80;16.90;;;;;;;23.00;79.82;99043.21;4340775;81;21045;-80
2021/07/08 23:39:47;;;;;;;21.10;16.30;;;;;;;23.03;79.27;99051.28;4318341;81;21016;-81
